San Francisco, California
Current Conditions -  °F | °C
As of 11:56 PM on Sunday 23 Nov 2014 (Local Time) from KSFO Reporting Station
Clear Clear  
Wind Chill: 52°   Ceiling: Unl
Heat Index: 52°   Visibility: 10mi
Dew Point: 46°   Wind: 5mph
Humidity: 80%   Direction: 220°SW
Pressure: 30.33"   Gusts: NA
Location:  37.78°N, 122.42°W
Report Text: KSFO 240756Z 22004KT 10SM CLR 11/08 A3033 RMK AO2 SLP271 T01110078 401890094
Loading
Personal Weather Stations






























Interactive Weather Map New forecast layout! Learn more

10-Day Weather Forecast

Advertisements
Track Severe Weather on mobile